createdAt,value
2018-09-26T00:00:11.013Z,59.99
2018-09-26T00:02:46.877Z,59.78
2018-09-26T00:05:15.970Z,60.29
2018-09-26T00:07:44.185Z,60.15
2018-09-26T00:10:12.429Z,59.73
2018-09-26T00:12:40.662Z,60.04
2018-09-26T00:15:08.901Z,59.96
2018-09-26T00:17:37.213Z,59.69
2018-09-26T00:20:05.448Z,59.84
2018-09-26T00:22:33.722Z,60.10
2018-09-26T00:25:01.958Z,60.23
2018-09-26T00:27:30.173Z,59.65
2018-09-26T00:29:58.400Z,60.61
2018-09-26T00:32:26.601Z,60.37
2018-09-26T00:34:54.945Z,60.02
2018-09-26T00:37:23.193Z,60.01
2018-09-26T00:39:51.467Z,60.12
2018-09-26T00:42:19.705Z,60.11
2018-09-26T00:44:48.000Z,59.98
2018-09-26T00:47:16.219Z,59.61
2018-09-26T00:49:44.456Z,60.04
2018-09-26T00:52:12.676Z,59.55
2018-09-26T00:54:40.934Z,59.54
2018-09-26T00:57:09.184Z,59.66
2018-09-26T00:59:37.421Z,59.21
2018-09-26T01:02:05.665Z,59.85
2018-09-26T01:04:33.949Z,59.50
2018-09-26T01:07:02.164Z,59.25
2018-09-26T01:09:30.395Z,59.56
2018-09-26T01:11:58.653Z,59.39
2018-09-26T01:14:26.917Z,59.23
2018-09-26T01:16:55.125Z,59.83
2018-09-26T01:19:23.368Z,59.84
2018-09-26T01:21:51.581Z,59.60
2018-09-26T01:24:19.833Z,59.77
2018-09-26T01:26:48.053Z,59.88
2018-09-26T01:29:16.347Z,60.14
2018-09-26T01:31:44.613Z,59.58
2018-09-26T01:34:12.845Z,59.90
2018-09-26T01:36:41.065Z,59.66
2018-09-26T01:39:09.937Z,59.50
2018-09-26T01:41:38.244Z,59.79
2018-09-26T01:44:06.562Z,59.92
2018-09-26T01:46:34.781Z,59.71
2018-09-26T01:49:03.052Z,59.83
2018-09-26T01:51:31.293Z,59.61
2018-09-26T01:53:59.510Z,60.08
2018-09-26T01:56:27.738Z,59.51
2018-09-26T01:58:55.998Z,59.77
2018-09-26T02:01:24.263Z,59.35
2018-09-26T02:03:52.486Z,59.48
2018-09-26T02:06:20.721Z,59.45
2018-09-26T02:08:48.941Z,60.06
2018-09-26T02:11:17.214Z,59.94
2018-09-26T02:13:45.462Z,59.68
2018-09-26T02:16:13.705Z,59.90
2018-09-26T02:18:41.957Z,59.79
2018-09-26T02:21:10.188Z,59.47
2018-09-26T02:23:38.477Z,59.41
2018-09-26T02:26:06.694Z,59.38
2018-09-26T02:28:35.002Z,59.56
2018-09-26T02:31:03.248Z,59.61
2018-09-26T02:33:31.473Z,59.58
2018-09-26T02:35:59.714Z,59.66
2018-09-26T02:38:27.962Z,59.37
2018-09-26T02:40:56.214Z,59.71
2018-09-26T02:43:24.457Z,59.54
2018-09-26T02:45:52.709Z,59.95
2018-09-26T02:48:26.398Z,60.00
2018-09-26T02:50:54.685Z,59.59
2018-09-26T02:53:22.900Z,59.76
2018-09-26T02:55:51.226Z,59.33
2018-09-26T02:58:19.453Z,59.70
2018-09-26T03:00:47.693Z,60.25
2018-09-26T03:03:15.905Z,60.04
2018-09-26T03:05:44.178Z,59.61
2018-09-26T03:08:12.388Z,59.43
2018-09-26T03:10:40.620Z,59.82
2018-09-26T03:13:08.955Z,59.78
2018-09-26T03:15:37.246Z,59.67
2018-09-26T03:18:05.473Z,60.11
2018-09-26T03:20:33.720Z,59.49
2018-09-26T03:23:01.956Z,59.19
2018-09-26T03:25:30.192Z,59.57
2018-09-26T03:27:58.530Z,59.13
2018-09-26T03:30:26.766Z,59.01
2018-09-26T03:32:55.014Z,58.97
2018-09-26T03:35:23.249Z,58.99
2018-09-26T03:37:51.488Z,58.62
2018-09-26T03:40:19.732Z,58.53
2018-09-26T03:42:48.069Z,58.55
2018-09-26T03:45:16.329Z,59.03
2018-09-26T03:47:44.552Z,58.70
2018-09-26T03:50:12.775Z,59.47
2018-09-26T03:52:41.029Z,59.34
2018-09-26T03:55:09.261Z,58.81
2018-09-26T03:57:37.537Z,59.05
2018-09-26T04:00:05.809Z,59.00
2018-09-26T04:02:34.071Z,58.77
2018-09-26T04:05:02.409Z,58.99
2018-09-26T04:07:31.516Z,58.63
2018-09-26T04:09:59.765Z,58.30
2018-09-26T04:12:28.320Z,58.47
2018-09-26T04:14:56.525Z,58.21
2018-09-26T04:17:24.766Z,57.98
2018-09-26T04:19:52.999Z,57.73
2018-09-26T04:22:21.238Z,58.10
2018-09-26T04:24:49.467Z,58.09
2018-09-26T04:27:18.529Z,58.67
2018-09-26T04:29:46.703Z,59.06
2018-09-26T04:32:14.945Z,58.87
2018-09-26T04:34:43.167Z,58.69
2018-09-26T04:37:11.440Z,58.32
2018-09-26T04:39:39.660Z,58.61
2018-09-26T04:42:07.893Z,58.67
2018-09-26T04:44:36.129Z,58.29
2018-09-26T04:47:04.382Z,58.31
2018-09-26T04:49:32.635Z,58.62
2018-09-26T04:52:00.877Z,58.17
2018-09-26T04:54:29.101Z,58.39
2018-09-26T04:56:57.349Z,58.20
2018-09-26T04:59:25.592Z,58.25
2018-09-26T05:01:53.833Z,58.35
2018-09-26T05:04:22.057Z,57.94
2018-09-26T05:06:50.348Z,58.29
2018-09-26T05:09:18.600Z,57.89
2018-09-26T05:11:46.860Z,58.23
2018-09-26T05:14:15.086Z,58.06
2018-09-26T05:16:43.328Z,57.92
2018-09-26T05:19:11.589Z,58.48
2018-09-26T05:21:39.848Z,58.18
2018-09-26T05:24:08.636Z,58.11
2018-09-26T05:26:36.947Z,58.27
2018-09-26T05:29:05.178Z,57.93
2018-09-26T05:31:33.429Z,57.86
2018-09-26T05:34:01.661Z,58.06
2018-09-26T05:36:29.904Z,57.89
2018-09-26T05:38:58.154Z,58.08
2018-09-26T05:41:26.384Z,58.18
2018-09-26T05:43:54.693Z,57.90
2018-09-26T05:46:23.207Z,57.97
2018-09-26T05:48:51.513Z,58.03
2018-09-26T05:51:19.757Z,58.34
2018-09-26T05:53:48.064Z,58.37
2018-09-26T05:56:16.657Z,58.54
2018-09-26T05:58:44.921Z,58.45
2018-09-26T06:01:13.162Z,57.89
2018-09-26T06:03:42.233Z,58.16
2018-09-26T06:06:10.478Z,57.74
2018-09-26T06:08:38.729Z,58.13
2018-09-26T06:11:07.204Z,58.23
2018-09-26T06:13:35.533Z,58.31
2018-09-26T06:16:03.879Z,58.47
2018-09-26T06:18:32.190Z,57.97
2018-09-26T06:21:00.420Z,58.08
2018-09-26T06:23:28.669Z,57.44
2018-09-26T06:25:56.909Z,57.55
2018-09-26T06:28:25.316Z,57.54
2018-09-26T06:30:53.561Z,57.51
2018-09-26T06:33:21.825Z,57.06
2018-09-26T06:35:50.091Z,56.24
2018-09-26T06:38:18.401Z,56.70
2018-09-26T06:40:46.626Z,56.66
2018-09-26T06:43:14.877Z,56.61
2018-09-26T06:45:43.130Z,56.27
2018-09-26T06:48:11.442Z,56.62
2018-09-26T06:50:39.674Z,56.06
2018-09-26T06:53:07.979Z,55.43
2018-09-26T06:55:36.256Z,55.59
2018-09-26T06:58:04.533Z,56.22
2018-09-26T07:00:32.777Z,55.76
2018-09-26T07:03:01.082Z,56.37
2018-09-26T07:05:30.017Z,56.58
2018-09-26T07:07:58.269Z,57.26
2018-09-26T07:10:26.499Z,56.51
2018-09-26T07:12:54.856Z,56.16
2018-09-26T07:15:23.089Z,55.68
2018-09-26T07:17:51.681Z,56.08
2018-09-26T07:20:20.126Z,55.49
2018-09-26T07:22:48.437Z,54.47
2018-09-26T07:25:16.736Z,55.28
2018-09-26T07:27:45.031Z,55.63
2018-09-26T07:30:13.274Z,54.47
2018-09-26T07:32:41.518Z,54.87
2018-09-26T07:35:09.782Z,54.67
2018-09-26T07:37:38.008Z,55.65
2018-09-26T07:40:06.609Z,55.29
2018-09-26T07:42:34.880Z,55.15
2018-09-26T07:45:03.132Z,55.17
2018-09-26T07:47:31.529Z,55.37
2018-09-26T07:49:59.838Z,55.01
2018-09-26T07:52:28.077Z,54.66
2018-09-26T07:54:56.321Z,54.73
2018-09-26T07:57:24.625Z,54.94
2018-09-26T07:59:53.030Z,55.05
2018-09-26T08:02:21.231Z,55.22
2018-09-26T08:04:49.488Z,54.40
2018-09-26T08:07:17.840Z,53.05
2018-09-26T08:09:46.110Z,52.71
2018-09-26T08:12:14.361Z,52.94
2018-09-26T08:14:42.647Z,51.71
2018-09-26T08:17:10.894Z,51.64
2018-09-26T08:19:39.164Z,51.35
2018-09-26T08:22:07.411Z,50.68
2018-09-26T08:24:35.675Z,51.91
2018-09-26T08:27:03.990Z,52.38
2018-09-26T08:29:32.258Z,53.35
2018-09-26T08:32:00.522Z,51.48
2018-09-26T08:34:28.797Z,51.71
2018-09-26T08:36:57.026Z,50.75
2018-09-26T08:39:26.489Z,50.43
2018-09-26T08:41:54.738Z,49.94
2018-09-26T08:44:22.992Z,49.41
2018-09-26T08:46:51.232Z,48.41
2018-09-26T08:49:19.473Z,48.88
2018-09-26T08:51:47.705Z,49.41
2018-09-26T08:54:16.009Z,48.32
2018-09-26T08:56:44.229Z,48.24
2018-09-26T08:59:12.533Z,47.51
2018-09-26T09:01:44.837Z,48.54
2018-09-26T09:04:13.176Z,48.24
2018-09-26T09:06:41.408Z,48.51
2018-09-26T09:09:09.730Z,48.81
2018-09-26T09:11:38.263Z,48.23
2018-09-26T09:14:06.791Z,47.20
2018-09-26T09:16:35.223Z,47.37
2018-09-26T09:19:03.498Z,46.31
2018-09-26T09:21:31.788Z,45.98
2018-09-26T09:24:00.065Z,45.28
2018-09-26T09:26:28.290Z,46.31
2018-09-26T09:28:56.673Z,46.62
2018-09-26T09:31:24.930Z,45.58
2018-09-26T09:33:53.167Z,44.55
2018-09-26T09:36:21.446Z,46.14
2018-09-26T09:38:49.693Z,46.27
2018-09-26T09:41:18.018Z,45.31
2018-09-26T09:43:46.260Z,45.43
2018-09-26T09:46:14.517Z,45.33
2018-09-26T09:48:42.754Z,44.52
2018-09-26T09:51:11.005Z,44.36
2018-09-26T09:53:39.261Z,41.80
2018-09-26T09:56:07.634Z,42.41
2018-09-26T09:58:35.847Z,43.24
2018-09-26T10:01:09.412Z,43.11
2018-09-26T10:03:37.656Z,43.83
2018-09-26T10:06:05.913Z,44.00
2018-09-26T10:08:34.206Z,41.82
2018-09-26T10:11:02.409Z,42.72
2018-09-26T10:13:31.085Z,43.15
2018-09-26T10:15:59.338Z,41.86
2018-09-26T10:18:27.613Z,42.49
2018-09-26T10:20:55.852Z,42.86
2018-09-26T10:23:24.109Z,41.17
2018-09-26T10:25:52.360Z,41.23
2018-09-26T10:28:20.577Z,41.80
2018-09-26T10:30:48.834Z,41.38
2018-09-26T10:33:17.053Z,40.98
2018-09-26T10:35:45.289Z,41.14
2018-09-26T10:38:13.548Z,42.14
2018-09-26T10:40:41.867Z,40.52
2018-09-26T10:43:10.077Z,40.62
2018-09-26T10:45:38.363Z,41.64
2018-09-26T10:48:06.703Z,41.07
2018-09-26T10:50:35.011Z,41.79
2018-09-26T10:53:03.403Z,41.42
2018-09-26T10:55:31.761Z,41.53
2018-09-26T10:58:00.002Z,40.24
2018-09-26T11:00:28.231Z,41.93
2018-09-26T11:02:56.490Z,40.54
2018-09-26T11:05:24.710Z,41.07
2018-09-26T11:07:52.953Z,40.06
2018-09-26T11:10:21.245Z,41.72
2018-09-26T11:12:50.058Z,41.61
2018-09-26T11:15:18.349Z,41.24
2018-09-26T11:17:46.753Z,40.29
2018-09-26T11:20:15.073Z,40.72
2018-09-26T11:22:43.409Z,40.56
2018-09-26T11:25:11.707Z,41.47
2018-09-26T11:27:39.965Z,41.42
2018-09-26T11:30:08.269Z,40.86
2018-09-26T11:32:36.522Z,40.39
2018-09-26T11:35:04.761Z,39.81
2018-09-26T11:37:33.011Z,41.03
2018-09-26T11:40:01.289Z,38.89
2018-09-26T11:42:29.764Z,39.71
2018-09-26T11:44:58.018Z,39.70
2018-09-26T11:47:26.296Z,41.12
2018-09-26T11:50:01.158Z,41.22
2018-09-26T11:52:29.418Z,40.57
2018-09-26T11:54:57.690Z,40.81
2018-09-26T11:57:25.989Z,41.56
2018-09-26T11:59:54.246Z,42.21
2018-09-26T12:02:22.555Z,40.02
2018-09-26T12:04:50.746Z,38.98
2018-09-26T12:07:19.062Z,39.51
2018-09-26T12:09:48.215Z,39.66
2018-09-26T12:12:16.516Z,39.84
2018-09-26T12:14:44.852Z,38.78
2018-09-26T12:17:13.146Z,38.63
2018-09-26T12:19:41.425Z,39.01
2018-09-26T12:22:09.749Z,38.57
2018-09-26T12:24:37.937Z,40.79
2018-09-26T12:27:06.283Z,39.88
2018-09-26T12:29:34.863Z,38.79
2018-09-26T12:32:03.149Z,39.91
2018-09-26T12:34:31.409Z,39.81
2018-09-26T12:36:59.789Z,40.64
2018-09-26T12:39:28.062Z,39.61
2018-09-26T12:41:56.305Z,39.21
2018-09-26T12:44:24.557Z,39.74
2018-09-26T12:46:52.794Z,39.50
2018-09-26T12:49:21.066Z,39.07
2018-09-26T12:51:49.314Z,39.13
2018-09-26T12:54:17.578Z,37.85
2018-09-26T12:56:45.858Z,37.96
2018-09-26T12:59:14.116Z,37.74
2018-09-26T13:01:42.349Z,38.33
2018-09-26T13:04:10.618Z,38.07
2018-09-26T13:06:38.890Z,38.76
2018-09-26T13:09:07.278Z,38.27
2018-09-26T13:11:35.526Z,37.89
2018-09-26T13:14:03.861Z,38.14
2018-09-26T13:16:32.145Z,38.31
2018-09-26T13:19:00.467Z,37.83
2018-09-26T13:21:28.657Z,38.68
2018-09-26T13:23:56.914Z,36.98
2018-09-26T13:26:26.043Z,36.98
2018-09-26T13:28:54.157Z,37.46
2018-09-26T13:31:22.421Z,36.86
2018-09-26T13:33:50.654Z,36.91
2018-09-26T13:36:18.975Z,37.27
2018-09-26T13:38:47.215Z,37.29
2018-09-26T13:41:15.484Z,37.01
2018-09-26T13:43:43.717Z,36.47
2018-09-26T13:46:12.084Z,37.30
2018-09-26T13:48:40.269Z,37.59
2018-09-26T13:51:08.517Z,37.02
2018-09-26T13:53:36.761Z,37.86
2018-09-26T13:56:05.023Z,37.88
2018-09-26T13:58:33.269Z,37.36
2018-09-26T14:01:01.800Z,38.17
2018-09-26T14:03:30.059Z,37.06
2018-09-26T14:05:58.320Z,37.32
2018-09-26T14:08:26.560Z,36.09
2018-09-26T14:10:54.839Z,37.71
2018-09-26T14:13:23.115Z,37.96
2018-09-26T14:15:51.352Z,37.23
2018-09-26T14:18:19.676Z,36.77
2018-09-26T14:21:04.699Z,37.00
2018-09-26T14:23:33.163Z,36.90
2018-09-26T14:26:01.601Z,36.72
2018-09-26T14:28:30.105Z,37.44
2018-09-26T14:30:58.605Z,36.48
2018-09-26T14:33:27.872Z,34.73
2018-09-26T14:35:56.292Z,36.71
2018-09-26T14:38:24.834Z,35.76
2018-09-26T14:40:53.377Z,35.47
2018-09-26T14:43:21.846Z,35.97
2018-09-26T14:45:50.422Z,36.37
2018-09-26T14:48:18.822Z,35.65
2018-09-26T14:50:48.129Z,36.72
2018-09-26T14:53:16.672Z,36.56
2018-09-26T14:55:45.096Z,35.53
2018-09-26T14:58:13.612Z,36.27
2018-09-26T15:00:42.002Z,35.82
2018-09-26T15:03:10.445Z,35.89
2018-09-26T15:05:38.922Z,35.36
2018-09-26T15:08:07.373Z,36.25
2018-09-26T15:10:35.909Z,36.95
2018-09-26T15:13:04.326Z,36.37
2018-09-26T15:15:32.758Z,36.80
2018-09-26T15:18:01.213Z,36.70
2018-09-26T15:20:29.643Z,35.88
2018-09-26T15:22:58.046Z,36.49
2018-09-26T15:25:26.476Z,35.88
2018-09-26T15:27:55.021Z,36.92
2018-09-26T15:30:23.505Z,36.46
2018-09-26T15:32:51.909Z,35.78
2018-09-26T15:35:20.403Z,35.78
2018-09-26T15:37:49.021Z,35.85
2018-09-26T15:40:17.553Z,36.27
2018-09-26T15:42:45.897Z,35.67
2018-09-26T15:45:14.336Z,35.46
2018-09-26T15:47:42.764Z,35.88
2018-09-26T15:50:11.425Z,36.18
2018-09-26T15:52:39.866Z,35.99
2018-09-26T15:55:08.309Z,36.39
2018-09-26T15:57:37.072Z,36.25
2018-09-26T16:00:05.778Z,35.71
2018-09-26T16:02:34.109Z,35.58
2018-09-26T16:05:19.162Z,36.51
2018-09-26T16:07:47.868Z,36.08
2018-09-26T16:10:16.145Z,35.43
2018-09-26T16:12:45.448Z,36.26
2018-09-26T16:15:13.733Z,36.27
2018-09-26T16:17:42.051Z,36.14
2018-09-26T16:20:10.297Z,35.75
2018-09-26T16:22:38.570Z,36.49
2018-09-26T16:25:06.805Z,36.37
2018-09-26T16:27:35.121Z,36.84
2018-09-26T16:30:03.446Z,37.64
2018-09-26T16:32:31.722Z,37.33
2018-09-26T16:35:00.011Z,37.32
2018-09-26T16:37:28.258Z,37.00
2018-09-26T16:39:56.525Z,36.89
2018-09-26T16:42:24.825Z,37.41
2018-09-26T16:44:53.063Z,37.35
2018-09-26T16:47:21.325Z,36.79
2018-09-26T16:49:49.578Z,37.08
2018-09-26T16:52:17.873Z,36.80
2018-09-26T16:54:46.189Z,37.67
2018-09-26T16:57:14.451Z,37.78
2018-09-26T16:59:42.684Z,38.26
2018-09-26T17:02:11.020Z,37.83
2018-09-26T17:04:39.234Z,38.11
2018-09-26T17:07:07.535Z,38.44
2018-09-26T17:09:35.811Z,38.54
2018-09-26T17:12:04.093Z,38.38
2018-09-26T17:14:32.367Z,38.77
2018-09-26T17:17:00.613Z,38.79
2018-09-26T17:19:28.946Z,39.27
2018-09-26T17:21:57.230Z,38.84
2018-09-26T17:24:25.578Z,39.76
2018-09-26T17:26:53.766Z,39.29
2018-09-26T17:29:22.065Z,40.16
2018-09-26T17:31:50.313Z,40.22
2018-09-26T17:34:19.048Z,40.42
2018-09-26T17:36:47.293Z,40.43
2018-09-26T17:39:15.553Z,40.93
2018-09-26T17:41:43.792Z,40.72
2018-09-26T17:44:12.057Z,41.30
2018-09-26T17:46:40.313Z,41.09
2018-09-26T17:49:08.643Z,41.65
2018-09-26T17:51:36.851Z,41.46
2018-09-26T17:54:05.123Z,41.67
2018-09-26T17:56:33.377Z,41.77
2018-09-26T17:59:01.645Z,41.32
2018-09-26T18:01:29.942Z,42.31
2018-09-26T18:03:58.322Z,40.83
2018-09-26T18:06:26.616Z,41.47
2018-09-26T18:08:54.896Z,40.07
2018-09-26T18:11:23.145Z,39.96
2018-09-26T18:13:51.437Z,40.85
2018-09-26T18:16:19.734Z,40.00
2018-09-26T18:18:48.063Z,39.86
2018-09-26T18:21:16.305Z,39.66
2018-09-26T18:23:44.596Z,39.54
2018-09-26T18:26:12.873Z,39.57
2018-09-26T18:28:41.150Z,39.71
2018-09-26T18:31:09.480Z,39.70
2018-09-26T18:33:37.814Z,40.08
2018-09-26T18:36:06.003Z,39.74
2018-09-26T18:38:34.808Z,39.73
2018-09-26T18:41:03.076Z,38.98
2018-09-26T18:43:31.364Z,39.14
2018-09-26T18:45:59.658Z,38.27
2018-09-26T18:48:27.930Z,38.49
2018-09-26T18:50:56.879Z,37.49
2018-09-26T18:53:25.508Z,38.01
2018-09-26T18:55:53.663Z,38.04
2018-09-26T18:58:21.933Z,38.43
2018-09-26T19:00:50.230Z,38.10
2018-09-26T19:03:18.521Z,38.43
2018-09-26T19:05:46.782Z,38.04
2018-09-26T19:08:15.043Z,38.25
2018-09-26T19:10:43.718Z,38.12
2018-09-26T19:13:12.011Z,38.08
2018-09-26T19:15:40.281Z,38.24
2018-09-26T19:18:08.574Z,37.44
2018-09-26T19:20:36.878Z,38.59
2018-09-26T19:23:05.173Z,37.73
2018-09-26T19:25:33.453Z,37.86
2018-09-26T19:28:01.712Z,37.97
2018-09-26T19:30:30.009Z,38.88
2018-09-26T19:32:58.309Z,38.57
2018-09-26T19:35:26.590Z,39.27
2018-09-26T19:37:54.873Z,38.81
2018-09-26T19:40:23.146Z,39.75
2018-09-26T19:42:51.445Z,39.81
2018-09-26T19:45:19.754Z,39.84
2018-09-26T19:47:48.023Z,40.17
2018-09-26T19:50:16.320Z,39.80
2018-09-26T19:52:44.566Z,39.90
2018-09-26T19:55:12.854Z,40.97
2018-09-26T19:57:41.130Z,40.62
2018-09-26T20:00:09.421Z,40.20
2018-09-26T20:02:37.710Z,40.95
2018-09-26T20:05:06.297Z,40.60
2018-09-26T20:07:34.535Z,41.02
2018-09-26T20:10:02.842Z,41.47
2018-09-26T20:12:31.162Z,40.78
2018-09-26T20:14:59.464Z,40.94
2018-09-26T20:17:27.772Z,41.07
2018-09-26T20:19:56.077Z,41.48
2018-09-26T20:22:24.341Z,41.01
2018-09-26T20:24:52.701Z,41.76
2018-09-26T20:27:21.952Z,41.11
2018-09-26T20:29:50.227Z,41.66
2018-09-26T20:32:18.464Z,41.35
2018-09-26T20:34:47.454Z,41.48
2018-09-26T20:37:16.290Z,41.37
2018-09-26T20:39:45.350Z,41.76
2018-09-26T20:42:13.984Z,41.24
2018-09-26T20:44:42.895Z,41.84
2018-09-26T20:47:11.567Z,41.22
2018-09-26T20:49:40.559Z,41.61
2018-09-26T20:52:09.583Z,41.33
2018-09-26T20:54:38.573Z,40.81
2018-09-26T20:57:07.461Z,40.72
2018-09-26T20:59:35.777Z,41.23
2018-09-26T21:02:04.384Z,41.40
2018-09-26T21:04:32.693Z,41.25
2018-09-26T21:07:00.985Z,41.32
2018-09-26T21:09:29.341Z,40.39
2018-09-26T21:11:57.676Z,41.16
2018-09-26T21:14:25.955Z,40.50
2018-09-26T21:16:54.223Z,41.19
2018-09-26T21:19:22.496Z,41.03
2018-09-26T21:21:50.789Z,40.48
2018-09-26T21:24:19.193Z,40.65
2018-09-26T21:26:47.522Z,41.12
2018-09-26T21:29:16.295Z,40.81
2018-09-26T21:31:44.607Z,41.08
2018-09-26T21:34:12.869Z,40.91
2018-09-26T21:36:41.157Z,41.54
2018-09-26T21:39:09.595Z,41.49
2018-09-26T21:41:37.781Z,41.53
2018-09-26T21:44:06.117Z,41.46
2018-09-26T21:46:34.381Z,41.73
2018-09-26T21:49:03.114Z,41.97
2018-09-26T21:51:31.470Z,41.39
2018-09-26T21:53:59.718Z,41.84
2018-09-26T21:56:28.002Z,41.74
2018-09-26T21:58:56.273Z,42.09
2018-09-26T22:01:28.710Z,42.09
2018-09-26T22:03:56.954Z,42.39
2018-09-26T22:06:25.377Z,42.33
2018-09-26T22:08:53.649Z,42.45
2018-09-26T22:11:22.581Z,42.26
2018-09-26T22:13:50.842Z,41.78
2018-09-26T22:16:19.124Z,42.13
2018-09-26T22:18:47.375Z,41.77
2018-09-26T22:21:15.680Z,42.15
2018-09-26T22:23:43.926Z,41.86
2018-09-26T22:26:12.193Z,42.18
2018-09-26T22:28:40.457Z,42.84
2018-09-26T22:31:08.741Z,43.56
2018-09-26T22:33:37.694Z,43.46
2018-09-26T22:36:05.694Z,43.50
2018-09-26T22:38:33.954Z,43.26
2018-09-26T22:41:02.229Z,43.43
2018-09-26T22:43:30.477Z,43.58
2018-09-26T22:45:58.753Z,43.62
2018-09-26T22:48:27.046Z,42.78
2018-09-26T22:50:55.335Z,43.21
2018-09-26T22:53:24.416Z,43.78
2018-09-26T22:55:52.652Z,44.07
2018-09-26T22:58:20.929Z,43.72
2018-09-26T23:00:49.177Z,43.68
2018-09-26T23:03:17.435Z,43.86
2018-09-26T23:05:45.685Z,43.89
2018-09-26T23:08:13.962Z,44.00
2018-09-26T23:10:42.234Z,43.90
2018-09-26T23:13:10.506Z,43.37
2018-09-26T23:24:10.225Z,43.16
2018-09-26T23:26:38.489Z,42.85
2018-09-26T23:29:06.805Z,42.61
2018-09-26T23:31:35.081Z,42.96
2018-09-26T23:34:03.410Z,42.95
2018-09-26T23:36:31.694Z,43.02
2018-09-26T23:39:00.011Z,42.89
2018-09-26T23:41:28.346Z,43.34
2018-09-26T23:43:56.645Z,43.50
2018-09-26T23:46:24.918Z,43.57
2018-09-26T23:48:53.226Z,43.96
2018-09-26T23:51:21.493Z,43.89
2018-09-26T23:53:49.781Z,44.43
2018-09-26T23:56:18.083Z,44.66
2018-09-26T23:58:46.362Z,44.31
